createdAt,value
2022-10-06T00:00:23.266Z,12.72
2022-10-06T00:05:55.139Z,12.66
2022-10-06T00:11:27.099Z,12.59
2022-10-06T00:16:58.751Z,12.51
2022-10-06T00:22:30.501Z,12.44
2022-10-06T00:28:02.446Z,12.41
2022-10-06T00:33:33.989Z,12.40
2022-10-06T00:39:06.065Z,12.38
2022-10-06T00:44:37.629Z,12.34
2022-10-06T00:50:09.418Z,12.30
2022-10-06T00:55:41.174Z,12.27
2022-10-06T01:01:13.125Z,12.23
2022-10-06T01:06:44.844Z,12.19
2022-10-06T01:12:16.731Z,12.15
2022-10-06T01:17:48.476Z,12.11
2022-10-06T01:23:20.195Z,12.07
2022-10-06T01:28:52.055Z,12.02
2022-10-06T01:34:23.666Z,11.96
2022-10-06T01:39:55.697Z,11.90
2022-10-06T01:45:27.148Z,11.85
2022-10-06T01:50:59.038Z,11.80
2022-10-06T01:56:30.941Z,11.75
2022-10-06T02:02:02.766Z,11.71
2022-10-06T02:07:34.408Z,11.67
2022-10-06T02:13:06.186Z,11.64
2022-10-06T02:18:38.112Z,11.61
2022-10-06T02:24:09.667Z,11.57
2022-10-06T02:29:41.418Z,11.54
2022-10-06T02:35:13.256Z,11.50
2022-10-06T02:40:45.026Z,11.48
2022-10-06T02:46:16.814Z,11.45
2022-10-06T02:51:48.590Z,11.44
2022-10-06T02:57:20.125Z,11.43
2022-10-06T03:02:51.666Z,11.41
2022-10-06T03:10:45.250Z,10.95
2022-10-06T03:16:17.134Z,11.14
2022-10-06T03:21:48.852Z,11.26
2022-10-06T03:27:22.673Z,11.33
2022-10-06T03:32:54.369Z,11.36
2022-10-06T03:38:26.472Z,11.36
2022-10-06T03:43:58.035Z,11.35
2022-10-06T03:49:29.900Z,11.33
2022-10-06T03:55:01.466Z,11.31
2022-10-06T04:00:33.493Z,11.29
2022-10-06T04:06:05.132Z,11.27
2022-10-06T04:11:37.023Z,11.26
2022-10-06T04:17:08.577Z,11.26
2022-10-06T04:22:40.399Z,11.27
2022-10-06T04:28:12.252Z,11.29
2022-10-06T04:33:44.169Z,11.30
2022-10-06T04:39:15.788Z,11.32
2022-10-06T04:44:47.508Z,11.34
2022-10-06T04:50:19.482Z,11.36
2022-10-06T04:55:51.148Z,11.39
2022-10-06T05:01:23.184Z,11.42
2022-10-06T05:12:27.558Z,11.42
2022-10-06T05:17:59.058Z,11.42
2022-10-06T05:23:30.728Z,11.41
2022-10-06T05:29:02.376Z,11.40
2022-10-06T05:34:34.293Z,11.40
2022-10-06T05:40:05.766Z,11.40
2022-10-06T05:45:37.339Z,11.42
2022-10-06T05:51:09.128Z,11.51
2022-10-06T05:56:40.884Z,11.75
2022-10-06T06:02:12.812Z,12.17
2022-10-06T06:07:44.463Z,12.72
2022-10-06T06:13:16.248Z,13.36
2022-10-06T06:18:47.778Z,14.08
2022-10-06T06:24:19.319Z,14.82
2022-10-06T06:29:50.954Z,15.54
2022-10-06T06:35:22.287Z,16.25
2022-10-06T06:40:53.762Z,16.95
2022-10-06T06:46:25.610Z,17.64
2022-10-06T06:51:57.450Z,18.33
2022-10-06T06:57:29.133Z,19.01
2022-10-06T07:03:01.146Z,19.63
2022-10-06T07:08:32.974Z,20.26
2022-10-06T07:14:04.541Z,20.89
2022-10-06T07:21:49.161Z,22.25
2022-10-06T07:27:20.479Z,22.57
2022-10-06T07:32:51.910Z,22.93
2022-10-06T07:38:23.693Z,23.33
2022-10-06T07:46:08.544Z,23.99
2022-10-06T07:51:39.831Z,24.22
2022-10-06T07:57:11.135Z,24.47
2022-10-06T08:02:42.682Z,24.67
2022-10-06T08:08:14.061Z,24.83
2022-10-06T08:13:45.708Z,24.96
2022-10-06T08:19:17.243Z,25.05
2022-10-06T08:25:05.265Z,25.12
2022-10-06T08:30:20.266Z,25.19
2022-10-06T08:35:51.947Z,25.29
2022-10-06T08:46:55.009Z,25.32
2022-10-06T08:52:26.420Z,25.35
2022-10-06T08:57:57.881Z,25.25
2022-10-06T09:03:29.452Z,24.97
2022-10-06T09:09:01.234Z,24.54
2022-10-06T09:14:33.017Z,24.00
2022-10-06T09:20:04.690Z,23.38
2022-10-06T09:25:36.444Z,22.99
2022-10-06T09:31:07.969Z,22.73
2022-10-06T09:36:39.701Z,22.51
2022-10-06T09:42:11.491Z,22.33
2022-10-06T09:47:43.311Z,22.16
2022-10-06T09:53:15.061Z,22.07
2022-10-06T09:58:46.517Z,22.11
2022-10-06T10:04:21.039Z,22.18
2022-10-06T10:09:49.940Z,22.30
2022-10-06T10:15:21.343Z,22.44
2022-10-06T10:20:52.636Z,22.54
2022-10-06T10:26:24.169Z,22.44
2022-10-06T10:31:55.980Z,22.32
2022-10-06T10:37:27.891Z,22.19
2022-10-06T10:42:59.420Z,22.03
2022-10-06T10:48:31.337Z,21.86
2022-10-06T10:54:03.186Z,21.81
2022-10-06T10:59:34.894Z,21.67
2022-10-06T11:05:06.644Z,21.45
2022-10-06T11:10:38.494Z,21.40
2022-10-06T11:16:10.237Z,21.40
2022-10-06T11:21:41.945Z,21.46
2022-10-06T11:27:13.820Z,21.54
2022-10-06T11:32:45.577Z,21.59
2022-10-06T11:38:17.418Z,21.68
2022-10-06T11:43:49.317Z,21.75
2022-10-06T11:49:21.043Z,21.76
2022-10-06T11:54:52.784Z,21.73
2022-10-06T12:00:24.632Z,21.69
2022-10-06T12:05:57.268Z,21.72
2022-10-06T12:11:28.254Z,21.72
2022-10-06T12:17:19.296Z,21.76
2022-10-06T12:22:31.832Z,21.78
2022-10-06T12:33:35.430Z,21.63
2022-10-06T12:39:07.224Z,21.74
2022-10-06T12:44:38.894Z,21.82
2022-10-06T12:55:40.219Z,21.61
2022-10-06T13:01:12.130Z,21.33
2022-10-06T13:06:43.814Z,21.18
2022-10-06T13:12:15.659Z,21.21
2022-10-06T13:17:47.397Z,21.14
2022-10-06T13:23:19.257Z,20.98
2022-10-06T13:28:51.176Z,20.90
2022-10-06T13:34:22.668Z,20.80
2022-10-06T13:39:54.194Z,20.72
2022-10-06T13:45:26.013Z,20.64
2022-10-06T14:02:01.192Z,20.37
2022-10-06T14:07:32.680Z,20.37
2022-10-06T14:13:04.300Z,20.44
2022-10-06T14:18:35.664Z,20.46
2022-10-06T14:24:09.311Z,20.50
2022-10-06T14:29:39.240Z,20.52
2022-10-06T14:35:10.866Z,20.50
2022-10-06T14:40:42.536Z,20.56
2022-10-06T14:46:14.369Z,20.59
2022-10-06T14:51:48.816Z,20.65
2022-10-06T15:02:50.399Z,20.54
2022-10-06T15:08:22.227Z,20.43
2022-10-06T15:13:53.941Z,20.32
2022-10-06T15:19:25.851Z,20.23
2022-10-06T15:24:57.529Z,20.16
2022-10-06T15:35:58.906Z,20.01
2022-10-06T15:41:35.051Z,19.91
2022-10-06T15:47:08.279Z,19.83
2022-10-06T15:52:39.778Z,19.76
2022-10-06T15:58:11.413Z,19.69
2022-10-06T16:03:43.565Z,19.60
2022-10-06T16:09:15.124Z,19.53
2022-10-06T16:14:46.993Z,19.42
2022-10-06T16:20:18.726Z,19.27
2022-10-06T16:25:50.504Z,19.15
2022-10-06T16:31:22.430Z,19.01
2022-10-06T16:42:23.786Z,18.72
2022-10-06T16:47:55.629Z,18.57
2022-10-06T16:53:27.340Z,18.40
2022-10-06T16:58:59.158Z,18.21
2022-10-06T17:04:30.981Z,18.04
2022-10-06T17:10:19.525Z,17.87
2022-10-06T17:15:34.657Z,17.70
2022-10-06T17:21:20.392Z,17.54
2022-10-06T17:26:38.114Z,17.40
2022-10-06T17:32:09.919Z,17.27
2022-10-06T17:37:41.592Z,17.14
2022-10-06T17:43:13.269Z,17.02
2022-10-06T17:48:45.136Z,16.88
2022-10-06T17:54:16.869Z,16.74
2022-10-06T17:59:48.622Z,16.61
2022-10-06T18:05:20.545Z,16.47
2022-10-06T18:10:54.779Z,16.32
2022-10-06T18:16:24.210Z,16.19
2022-10-06T18:21:55.981Z,16.07
2022-10-06T18:27:27.615Z,15.95
2022-10-06T18:35:57.654Z,15.83
2022-10-06T18:38:31.401Z,15.72
2022-10-06T18:44:03.116Z,15.60
2022-10-06T18:49:34.625Z,15.50
2022-10-06T18:55:06.771Z,15.41
2022-10-06T19:00:38.342Z,15.34
2022-10-06T19:06:10.197Z,15.28
2022-10-06T19:11:41.992Z,15.21
2022-10-06T19:17:14.158Z,15.12
2022-10-06T19:22:45.847Z,15.02
2022-10-06T19:28:17.664Z,14.92
2022-10-06T19:39:21.168Z,14.75
2022-10-06T19:44:53.016Z,14.67
2022-10-06T19:56:01.070Z,14.49
2022-10-06T20:01:32.786Z,14.43
2022-10-06T20:07:04.577Z,14.37
2022-10-06T20:12:36.389Z,14.32
2022-10-06T20:18:08.296Z,14.27
2022-10-06T20:23:40.014Z,14.21
2022-10-06T20:29:12.014Z,14.16
2022-10-06T20:34:43.737Z,14.10
2022-10-06T20:40:15.495Z,14.06
2022-10-06T20:42:38.987Z,13.58
2022-10-06T20:48:12.581Z,13.75
2022-10-06T20:53:44.266Z,13.82
2022-10-06T20:59:15.991Z,13.87
2022-10-06T21:04:47.805Z,13.91
2022-10-06T21:10:19.624Z,13.96
2022-10-06T21:15:51.592Z,13.99
2022-10-06T21:21:23.217Z,14.01
2022-10-06T21:26:55.031Z,14.04
2022-10-06T21:32:28.407Z,14.06
2022-10-06T21:38:02.192Z,14.09
2022-10-06T21:43:33.909Z,14.12
2022-10-06T21:49:05.650Z,14.14
2022-10-06T21:54:37.585Z,14.16
2022-10-06T22:00:09.266Z,14.19
2022-10-06T22:05:40.969Z,14.20
2022-10-06T22:11:12.930Z,14.20
2022-10-06T22:16:44.631Z,14.18
2022-10-06T22:22:16.520Z,14.17
2022-10-06T22:27:48.191Z,14.19
2022-10-06T22:33:20.043Z,14.22
2022-10-06T22:38:51.382Z,14.23
2022-10-06T22:44:23.209Z,14.23
2022-10-06T22:49:54.813Z,14.22
2022-10-06T22:55:26.379Z,14.19
2022-10-06T23:00:58.199Z,14.15
2022-10-06T23:06:30.051Z,14.12
2022-10-06T23:12:01.795Z,14.10
2022-10-06T23:17:33.515Z,14.08
2022-10-06T23:23:05.294Z,14.05
2022-10-06T23:28:37.157Z,14.04
2022-10-06T23:34:08.763Z,14.03
2022-10-06T23:39:40.988Z,14.04
2022-10-06T23:45:12.473Z,14.07
2022-10-06T23:50:44.306Z,14.08
2022-10-06T23:56:16.079Z,14.07
